createdAt,value
2022-09-05T00:00:04.107Z,1191.53
2022-09-05T00:02:48.776Z,710.23
2022-09-05T00:05:36.403Z,757.90
2022-09-05T00:08:16.425Z,969.40
2022-09-05T00:11:40.626Z,1397.00
2022-09-05T00:13:40.019Z,862.00
2022-09-05T00:16:32.218Z,1355.30
2022-09-05T00:24:22.491Z,1413.87
2022-09-05T00:24:29.055Z,1384.50
2022-09-05T00:25:38.543Z,1321.50
2022-09-05T00:28:25.837Z,1403.30
2022-09-05T00:31:55.646Z,1402.03
2022-09-05T00:34:22.260Z,781.63
2022-09-05T00:36:53.671Z,761.40
2022-09-05T00:39:24.021Z,1675.30
2022-09-05T00:41:53.419Z,1579.40
2022-09-05T00:44:24.537Z,1528.93
2022-09-05T00:46:57.979Z,1566.97
2022-09-05T00:49:30.191Z,1663.40
2022-09-05T00:52:02.050Z,1533.50
2022-09-05T00:54:57.042Z,1629.27
2022-09-05T00:57:40.323Z,1422.53
2022-09-05T01:00:17.596Z,741.50
2022-09-05T01:03:26.636Z,1564.43
2022-09-05T01:06:17.571Z,1628.63
2022-09-05T01:09:09.255Z,758.93
2022-09-05T01:11:54.061Z,1428.70
2022-09-05T01:14:32.102Z,1477.07
2022-09-05T01:17:09.871Z,2014.90
2022-09-05T01:19:52.188Z,1525.50
2022-09-05T01:22:40.058Z,1425.20
2022-09-05T01:25:16.456Z,1147.53
2022-09-05T01:29:16.717Z,783.33
2022-09-05T01:30:42.980Z,766.83
2022-09-05T01:33:20.920Z,1741.97
2022-09-05T01:36:22.654Z,1717.57
2022-09-05T01:39:45.524Z,1806.10
2022-09-05T01:41:53.290Z,1664.77
2022-09-05T01:44:31.798Z,1591.03
2022-09-05T01:47:10.543Z,1554.23
2022-09-05T01:49:47.390Z,1631.27
2022-09-05T01:52:26.023Z,1509.53
2022-09-05T01:55:07.544Z,1653.90
2022-09-05T01:57:41.348Z,1785.77
2022-09-05T02:00:13.410Z,1855.40
2022-09-05T02:02:53.122Z,1862.83
2022-09-05T02:05:48.942Z,1693.97
2022-09-05T02:08:47.899Z,1539.67
2022-09-05T02:11:36.166Z,1791.07
2022-09-05T02:14:09.449Z,1654.37
2022-09-05T02:16:44.720Z,1860.87
2022-09-05T02:19:18.005Z,1796.37
2022-09-05T02:21:55.674Z,1759.10
2022-09-05T02:24:28.313Z,1817.87
2022-09-05T02:27:07.426Z,1763.20
2022-09-05T02:29:42.870Z,1822.60
2022-09-05T02:32:14.826Z,1883.67
2022-09-05T02:34:53.713Z,1715.07
2022-09-05T02:38:31.701Z,1901.50
2022-09-05T02:45:01.505Z,1908.47
2022-09-05T02:45:20.115Z,959.37
2022-09-05T02:46:05.651Z,1598.57
2022-09-05T02:48:48.549Z,1495.73
2022-09-05T02:57:26.459Z,1495.23
2022-09-05T02:57:27.378Z,1589.53
2022-09-05T02:57:40.449Z,1808.90
2022-09-05T03:00:07.724Z,1071.20
2022-09-05T03:02:43.921Z,1790.03
2022-09-05T03:05:19.003Z,1730.63
2022-09-05T03:08:08.717Z,1720.50
2022-09-05T03:11:05.318Z,1810.63
2022-09-05T03:14:12.406Z,1692.67
2022-09-05T03:17:25.634Z,1698.53
2022-09-05T03:20:16.718Z,1736.57
2022-09-05T03:23:09.575Z,1752.73
2022-09-05T03:26:05.179Z,1596.37
2022-09-05T03:29:17.722Z,1637.60
2022-09-05T03:32:17.738Z,1554.13
2022-09-05T03:34:56.807Z,1739.17
2022-09-05T03:37:49.116Z,1899.13
2022-09-05T03:40:37.250Z,1724.10
2022-09-05T03:43:25.843Z,1722.53
2022-09-05T03:46:03.918Z,1741.97
2022-09-05T03:52:13.126Z,1849.00
2022-09-05T03:57:11.960Z,1645.77
2022-09-05T03:57:13.047Z,1764.50
2022-09-05T03:58:55.322Z,1882.97
2022-09-05T04:02:37.359Z,1615.60
2022-09-05T04:08:17.039Z,1741.00
2022-09-05T04:08:20.442Z,1848.17
2022-09-05T04:09:53.231Z,1706.43
2022-09-05T04:12:25.228Z,1865.93
2022-09-05T04:14:56.422Z,1818.43
2022-09-05T04:17:31.134Z,1906.67
2022-09-05T04:20:02.709Z,2090.77
2022-09-05T04:22:39.628Z,2022.60
2022-09-05T04:25:13.431Z,221.27
2022-09-05T04:27:50.250Z,152.57
2022-09-05T04:30:38.150Z,135.83
2022-09-05T04:33:16.255Z,102.20
2022-09-05T04:35:53.866Z,128.03
2022-09-05T04:38:37.878Z,180.50
2022-09-05T04:41:09.661Z,156.90
2022-09-05T04:43:41.653Z,172.70
2022-09-05T04:46:18.839Z,522.50
2022-09-05T04:48:52.306Z,231.83
2022-09-05T04:51:44.161Z,255.20
2022-09-05T04:54:27.630Z,129.60
2022-09-05T04:57:13.624Z,161.57
2022-09-05T05:02:38.109Z,265.40
2022-09-05T05:06:11.231Z,528.47
2022-09-05T05:06:13.497Z,182.40
2022-09-05T05:08:31.716Z,191.07
2022-09-05T05:17:55.226Z,422.70
2022-09-05T05:17:58.767Z,194.97
2022-09-05T05:18:08.797Z,171.77
2022-09-05T05:19:57.894Z,276.83
2022-09-05T05:22:34.111Z,356.07
2022-09-05T05:25:01.952Z,334.63
2022-09-05T05:27:35.431Z,480.33
2022-09-05T05:30:05.429Z,356.60
2022-09-05T05:32:45.691Z,294.23
2022-09-05T05:35:16.057Z,327.07
2022-09-05T05:37:46.639Z,405.47
2022-09-05T05:40:21.245Z,332.23
2022-09-05T05:42:49.017Z,441.33
2022-09-05T05:45:18.519Z,391.13
2022-09-05T05:47:50.468Z,432.47
2022-09-05T05:50:33.116Z,433.90
2022-09-05T05:53:28.994Z,351.37
2022-09-05T05:56:29.099Z,411.00
2022-09-05T05:59:06.498Z,431.40
2022-09-05T06:02:02.201Z,560.17
2022-09-05T06:04:49.259Z,577.10
2022-09-05T06:07:23.822Z,518.63
2022-09-05T06:14:52.690Z,475.03
2022-09-05T06:15:00.312Z,523.53
2022-09-05T06:16:41.247Z,475.97
2022-09-05T06:19:46.994Z,551.13
2022-09-05T06:22:44.082Z,483.80
2022-09-05T06:25:47.111Z,394.43
2022-09-05T06:28:22.134Z,440.10
2022-09-05T06:31:29.252Z,593.80
2022-09-05T06:33:53.111Z,567.47
2022-09-05T06:36:43.846Z,582.87
2022-09-05T06:39:17.540Z,579.47
2022-09-05T06:41:58.140Z,584.80
2022-09-05T06:44:42.439Z,588.80
2022-09-05T06:47:23.032Z,456.57
2022-09-05T06:50:24.107Z,555.47
2022-09-05T06:53:35.318Z,568.03
2022-09-05T06:56:12.719Z,490.87
2022-09-05T06:59:34.275Z,563.30
2022-09-05T07:02:08.499Z,580.47
2022-09-05T07:05:23.702Z,580.10
2022-09-05T07:07:35.723Z,635.23
2022-09-05T07:10:34.635Z,675.77
2022-09-05T07:13:00.440Z,605.87
2022-09-05T07:15:37.030Z,681.27
2022-09-05T07:18:13.536Z,526.40
2022-09-05T07:21:16.471Z,637.10
2022-09-05T07:24:09.021Z,657.43
2022-09-05T07:26:53.601Z,590.83
2022-09-05T07:29:29.552Z,625.40
2022-09-05T07:31:58.330Z,689.57
2022-09-05T07:34:28.379Z,690.60
2022-09-05T07:37:14.646Z,701.97
2022-09-05T07:39:46.482Z,645.40
2022-09-05T07:42:17.780Z,767.60
2022-09-05T07:44:50.153Z,667.77
2022-09-05T07:47:22.139Z,757.90
2022-09-05T07:50:13.937Z,720.97
2022-09-05T07:56:53.303Z,577.07
2022-09-05T07:56:59.518Z,711.93
2022-09-05T07:58:21.304Z,783.50
2022-09-05T08:00:54.505Z,794.73
2022-09-05T08:03:26.582Z,732.13
2022-09-05T08:05:55.413Z,761.50
2022-09-05T08:08:25.580Z,865.67
2022-09-05T08:11:24.317Z,697.10
2022-09-05T08:13:53.403Z,621.57
2022-09-05T08:16:34.795Z,796.77
2022-09-05T08:19:12.483Z,630.20
2022-09-05T08:21:43.851Z,840.53
2022-09-05T08:24:14.447Z,831.23
2022-09-05T08:26:47.051Z,872.90
2022-09-05T08:29:26.742Z,800.47
2022-09-05T08:31:58.034Z,932.93
2022-09-05T08:34:44.903Z,839.63
2022-09-05T08:37:15.167Z,856.10
2022-09-05T08:39:50.490Z,849.10
2022-09-05T08:42:49.349Z,887.67
2022-09-05T08:46:44.897Z,815.23
2022-09-05T08:48:39.878Z,791.03
2022-09-05T08:51:25.772Z,869.70
2022-09-05T08:54:08.827Z,760.07
2022-09-05T08:56:41.013Z,802.97
2022-09-05T08:59:31.667Z,745.40
2022-09-05T09:02:47.356Z,794.60
2022-09-05T09:05:14.185Z,654.03
2022-09-05T09:07:51.297Z,664.07
2022-09-05T09:10:40.351Z,677.20
2022-09-05T09:13:20.102Z,811.00
2022-09-05T09:15:53.028Z,718.77
2022-09-05T09:18:21.319Z,731.33
2022-09-05T09:20:53.803Z,716.37
2022-09-05T09:23:41.672Z,832.87
2022-09-05T09:26:15.748Z,714.60
2022-09-05T09:28:51.719Z,646.83
2022-09-05T09:31:37.100Z,707.37
2022-09-05T09:34:18.238Z,616.43
2022-09-05T09:37:15.248Z,1008.57
2022-09-05T09:40:02.499Z,1097.67
2022-09-05T09:42:34.315Z,981.10
2022-09-05T09:45:29.043Z,742.77
2022-09-05T09:48:34.743Z,651.77
2022-09-05T09:51:15.016Z,1204.70
2022-09-05T09:53:53.090Z,781.50
2022-09-05T09:56:55.778Z,797.73
2022-09-05T09:59:30.925Z,1045.83
2022-09-05T10:03:37.675Z,1231.83
2022-09-05T10:10:35.371Z,673.30
2022-09-05T10:10:55.201Z,868.83
2022-09-05T10:14:49.519Z,707.50
2022-09-05T10:17:33.640Z,675.27
2022-09-05T10:20:29.495Z,944.83
2022-09-05T10:23:11.076Z,1345.47
2022-09-05T10:25:58.249Z,1138.03
2022-09-05T10:28:38.616Z,1122.00
2022-09-05T10:33:05.262Z,1332.67
2022-09-05T10:35:17.910Z,1194.43
2022-09-05T10:37:02.625Z,1191.00
2022-09-05T10:39:31.454Z,1052.10
2022-09-05T10:42:03.612Z,1027.97
2022-09-05T10:44:38.829Z,723.33
2022-09-05T10:47:16.688Z,1052.20
2022-09-05T10:49:45.532Z,811.40
2022-09-05T10:52:18.115Z,888.23
2022-09-05T10:55:15.209Z,1014.43
2022-09-05T10:57:54.285Z,1253.73
2022-09-05T11:02:20.101Z,1326.17
2022-09-05T11:03:50.180Z,1171.00
2022-09-05T11:06:25.141Z,1210.83
2022-09-05T11:09:00.653Z,1295.00
2022-09-05T11:11:34.695Z,1247.37
2022-09-05T11:14:07.196Z,1195.33
2022-09-05T11:16:50.666Z,1197.53
2022-09-05T11:19:20.115Z,1192.00
2022-09-05T11:22:10.308Z,920.23
2022-09-05T11:24:49.508Z,979.40
2022-09-05T11:27:27.004Z,945.23
2022-09-05T11:29:57.367Z,829.90
2022-09-05T11:39:38.118Z,950.20
2022-09-05T11:39:51.484Z,934.80
2022-09-05T11:39:53.052Z,965.20
2022-09-05T11:42:10.027Z,936.30
2022-09-05T11:44:44.944Z,933.97
2022-09-05T11:48:00.900Z,934.17
2022-09-05T11:50:47.924Z,894.33
2022-09-05T11:53:44.643Z,979.27
2022-09-05T11:56:45.488Z,958.30
2022-09-05T11:59:45.005Z,1170.60
2022-09-05T12:02:43.603Z,936.93
2022-09-05T12:08:26.227Z,1053.17
2022-09-05T12:11:05.371Z,1199.60
2022-09-05T12:13:42.450Z,1236.10
2022-09-05T12:19:22.978Z,1031.63
2022-09-05T12:22:24.010Z,1036.17
2022-09-05T12:25:27.525Z,1084.13
2022-09-05T12:29:09.759Z,984.60
2022-09-05T12:31:07.280Z,1271.57
2022-09-05T12:36:05.165Z,1202.97
2022-09-05T12:40:56.856Z,1151.23
2022-09-05T12:41:37.137Z,1222.03
2022-09-05T12:41:41.218Z,1057.87
2022-09-05T12:42:08.440Z,1283.37
2022-09-05T12:42:28.170Z,1325.80
2022-09-05T12:45:10.253Z,1416.40
2022-09-05T12:47:55.446Z,1329.03
2022-09-05T12:50:33.406Z,1213.27
2022-09-05T12:53:06.747Z,1324.87
2022-09-05T12:55:37.367Z,1305.33
2022-09-05T13:02:58.813Z,1087.03
2022-09-05T13:03:01.347Z,980.20
2022-09-05T13:04:20.106Z,1193.40
2022-09-05T13:06:54.823Z,999.33
2022-09-05T13:09:30.789Z,1129.50
2022-09-05T13:14:56.092Z,1098.53
2022-09-05T13:15:20.120Z,1154.80
2022-09-05T13:17:54.219Z,1130.67
2022-09-05T13:20:34.098Z,1148.93
2022-09-05T13:23:05.495Z,1203.20
2022-09-05T13:25:36.091Z,1147.23
2022-09-05T13:28:06.303Z,1224.87
2022-09-05T13:35:42.204Z,1198.87
2022-09-05T13:38:19.616Z,1029.10
2022-09-05T13:38:30.571Z,1056.10
2022-09-05T13:39:11.100Z,1010.17
2022-09-05T13:41:45.088Z,1016.30
2022-09-05T13:44:26.495Z,999.77
2022-09-05T13:47:02.067Z,1127.53
2022-09-05T13:49:40.383Z,1076.87
2022-09-05T13:52:20.699Z,1113.77
2022-09-05T13:54:51.723Z,1075.57
2022-09-05T13:57:37.869Z,1123.17
2022-09-05T14:00:44.979Z,1063.13
2022-09-05T14:03:43.910Z,987.83
2022-09-05T14:06:45.592Z,1011.20
2022-09-05T14:09:40.103Z,999.30
2022-09-05T14:12:12.564Z,1019.50
2022-09-05T14:17:51.894Z,1063.10
2022-09-05T14:20:43.027Z,1053.33
2022-09-05T14:23:13.396Z,1048.97
2022-09-05T14:25:44.163Z,1219.97
2022-09-05T14:28:14.119Z,1153.40
2022-09-05T14:33:21.172Z,1189.07
2022-09-05T14:37:40.123Z,1116.27
2022-09-05T14:38:07.914Z,1077.40
2022-09-05T14:41:16.866Z,934.70
2022-09-05T14:44:17.423Z,984.73
2022-09-05T14:47:02.625Z,893.50
2022-09-05T14:50:04.151Z,951.97
2022-09-05T14:52:35.513Z,1018.27
2022-09-05T15:02:49.947Z,1072.63
2022-09-05T15:02:56.426Z,1003.60
2022-09-05T15:06:32.995Z,897.63
2022-09-05T15:12:14.425Z,1000.43
2022-09-05T15:12:25.815Z,1022.43
2022-09-05T15:14:42.093Z,1008.90
2022-09-05T15:17:09.758Z,1009.13
2022-09-05T15:20:06.689Z,991.47
2022-09-05T15:22:37.311Z,994.73
2022-09-05T15:25:17.888Z,1033.93
2022-09-05T15:27:48.108Z,1136.50
2022-09-05T15:30:21.450Z,1158.37
2022-09-05T15:32:50.777Z,1035.73
2022-09-05T15:35:42.959Z,968.43
2022-09-05T15:38:56.289Z,948.43
2022-09-05T15:41:35.646Z,972.13
2022-09-05T15:44:28.389Z,1009.60
2022-09-05T15:47:02.085Z,1054.60
2022-09-05T15:49:38.450Z,957.07
2022-09-05T15:52:12.693Z,981.90
2022-09-05T15:54:51.207Z,1023.43
2022-09-05T15:57:25.480Z,1018.33
2022-09-05T16:00:04.690Z,1032.97
2022-09-05T16:02:39.021Z,979.33
2022-09-05T16:10:26.668Z,1059.00
2022-09-05T16:10:36.595Z,1026.87
2022-09-05T16:12:17.118Z,1031.63
2022-09-05T16:16:40.419Z,993.77
2022-09-05T16:23:14.637Z,983.97
2022-09-05T16:23:32.670Z,1060.70
2022-09-05T16:23:59.316Z,1159.20
2022-09-05T16:26:44.129Z,1228.10
2022-09-05T16:29:25.923Z,1146.10
2022-09-05T16:32:37.447Z,1147.20
2022-09-05T16:35:26.341Z,1011.23
2022-09-05T16:38:01.593Z,940.17
2022-09-05T16:40:41.276Z,880.23
2022-09-05T16:43:19.102Z,729.77
2022-09-05T16:45:51.134Z,1283.17
2022-09-05T16:48:37.804Z,1292.43
2022-09-05T16:51:15.756Z,1253.87
2022-09-05T16:53:50.814Z,1332.77
2022-09-05T16:56:29.965Z,1271.63
2022-09-05T16:58:59.751Z,1413.67
2022-09-05T17:01:54.738Z,1224.47
2022-09-05T17:05:03.113Z,977.60
2022-09-05T17:07:42.579Z,1055.00
2022-09-05T17:10:12.255Z,980.17
2022-09-05T17:12:40.451Z,1297.73
2022-09-05T17:15:11.500Z,1322.00
2022-09-05T17:18:19.152Z,971.43
2022-09-05T17:20:48.265Z,1194.60
2022-09-05T17:26:36.979Z,985.53
2022-09-05T17:29:31.062Z,902.23
2022-09-05T17:29:36.091Z,887.93
2022-09-05T17:31:58.430Z,851.40
2022-09-05T17:34:50.285Z,943.00
2022-09-05T17:37:34.260Z,900.70
2022-09-05T17:40:41.824Z,1262.23
2022-09-05T17:43:28.411Z,1524.30
2022-09-05T17:46:09.473Z,1269.03
2022-09-05T17:49:18.469Z,1269.73
2022-09-05T17:52:23.867Z,1080.90
2022-09-05T17:54:53.636Z,995.50
2022-09-05T17:57:45.076Z,815.93
2022-09-05T18:00:49.358Z,821.50
2022-09-05T18:04:08.379Z,868.30
2022-09-05T18:06:54.063Z,1103.93
2022-09-05T18:09:59.047Z,806.87
2022-09-05T18:13:13.802Z,1250.93
2022-09-05T18:16:04.632Z,1269.07
2022-09-05T18:19:28.051Z,1218.60
2022-09-05T18:21:25.587Z,1324.70
2022-09-05T18:24:00.555Z,1340.50
2022-09-05T18:26:29.330Z,739.63
2022-09-05T18:29:05.973Z,919.27
2022-09-05T18:31:59.162Z,1334.60
2022-09-05T18:34:44.871Z,858.60
2022-09-05T18:37:50.999Z,830.27
2022-09-05T18:40:39.044Z,914.87
2022-09-05T18:43:13.316Z,1305.33
2022-09-05T18:45:52.419Z,1256.00
2022-09-05T18:48:29.836Z,1490.13
2022-09-05T18:51:15.116Z,1410.47
2022-09-05T18:53:47.459Z,1430.73
2022-09-05T18:56:22.975Z,1318.53
2022-09-05T18:59:01.524Z,1497.93
2022-09-05T19:01:43.510Z,1513.17
2022-09-05T19:04:17.598Z,1371.87
2022-09-05T19:07:09.189Z,1576.97
2022-09-05T19:09:37.995Z,1547.37
2022-09-05T19:12:33.356Z,1843.27
2022-09-05T19:14:56.342Z,1582.50
2022-09-05T19:17:32.671Z,1589.80
2022-09-05T19:20:31.934Z,1611.17
2022-09-05T19:23:09.970Z,1636.63
2022-09-05T19:25:41.684Z,1582.00
2022-09-05T19:36:44.052Z,1626.57
2022-09-05T19:36:50.762Z,1576.63
2022-09-05T19:36:54.776Z,1660.87
2022-09-05T19:37:13.586Z,1561.07
2022-09-05T19:43:01.194Z,836.93
2022-09-05T19:47:34.959Z,881.10
2022-09-05T19:47:42.609Z,1612.80
2022-09-05T19:48:07.594Z,1599.77
2022-09-05T19:50:37.354Z,1722.30
2022-09-05T19:53:07.004Z,1648.20
2022-09-05T19:55:36.779Z,1515.33
2022-09-05T19:58:19.715Z,1744.27
2022-09-05T20:01:00.426Z,1657.17
2022-09-05T20:03:38.335Z,1564.87
2022-09-05T20:06:15.538Z,1782.83
2022-09-05T20:09:09.241Z,1687.33
2022-09-05T20:11:45.273Z,1847.23
2022-09-05T20:14:23.050Z,1769.07
2022-09-05T20:16:52.422Z,1936.73
2022-09-05T20:19:28.522Z,852.33
2022-09-05T20:21:59.766Z,1879.83
2022-09-05T20:24:47.786Z,1852.77
2022-09-05T20:27:17.003Z,164.53
2022-09-05T20:29:55.567Z,306.87
2022-09-05T20:32:39.291Z,568.60
2022-09-05T20:36:40.154Z,674.33
2022-09-05T20:43:15.894Z,377.97
2022-09-05T20:43:19.941Z,311.50
2022-09-05T20:43:57.573Z,325.00
2022-09-05T20:51:29.510Z,647.93
2022-09-05T20:54:04.876Z,714.67
2022-09-05T20:54:19.064Z,700.37
2022-09-05T20:55:09.278Z,403.50
2022-09-05T20:57:47.917Z,670.83
2022-09-05T21:00:17.736Z,685.87
2022-09-05T21:02:55.824Z,534.63
2022-09-05T21:05:29.782Z,547.00
2022-09-05T21:08:23.189Z,534.03
2022-09-05T21:10:55.890Z,519.53
2022-09-05T21:13:27.299Z,444.40
2022-09-05T21:15:55.512Z,530.87
2022-09-05T21:18:28.640Z,525.47
2022-09-05T21:21:06.880Z,560.03
2022-09-05T21:24:00.914Z,557.67
2022-09-05T21:26:47.015Z,528.30
2022-09-05T21:29:16.406Z,548.03
2022-09-05T21:31:46.218Z,551.40
2022-09-05T21:34:23.682Z,538.40
2022-09-05T21:37:03.921Z,560.47
2022-09-05T21:39:38.087Z,687.20
2022-09-05T21:42:39.133Z,691.80
2022-09-05T21:47:39.162Z,713.27
2022-09-05T21:47:53.054Z,741.00
2022-09-05T21:50:30.761Z,711.13
2022-09-05T21:53:21.496Z,730.47
2022-09-05T21:59:17.321Z,663.77
2022-09-05T21:59:18.469Z,713.27
2022-09-05T22:01:50.977Z,621.30
2022-09-05T22:04:16.674Z,616.30
2022-09-05T22:06:48.404Z,546.27
2022-09-05T22:09:17.075Z,732.47
2022-09-05T22:11:50.017Z,702.47
2022-09-05T22:14:19.383Z,744.33
2022-09-05T22:16:47.612Z,623.67
2022-09-05T22:19:17.718Z,754.93
2022-09-05T22:21:45.457Z,718.10
2022-09-05T22:24:13.723Z,754.77
2022-09-05T22:27:01.514Z,669.83
2022-09-05T22:29:34.489Z,872.00
2022-09-05T22:32:02.186Z,798.50
2022-09-05T22:34:29.860Z,697.83
2022-09-05T22:36:57.506Z,676.90
2022-09-05T22:39:36.525Z,672.83
2022-09-05T22:42:07.580Z,723.37
2022-09-05T22:44:40.613Z,667.17
2022-09-05T22:47:08.907Z,729.27
2022-09-05T22:49:37.274Z,757.50
2022-09-05T22:52:05.847Z,734.17
2022-09-05T22:54:33.512Z,753.23
2022-09-05T22:57:01.106Z,705.90
2022-09-05T22:59:28.772Z,702.97
2022-09-05T23:01:57.738Z,552.30
2022-09-05T23:04:25.727Z,701.20
2022-09-05T23:06:53.552Z,666.53
2022-09-05T23:09:21.242Z,812.87
2022-09-05T23:11:48.957Z,738.50
2022-09-05T23:14:16.585Z,785.83
2022-09-05T23:16:44.168Z,753.00
2022-09-05T23:19:13.111Z,778.23
2022-09-05T23:21:40.824Z,705.07
2022-09-05T23:24:08.515Z,744.50
2022-09-05T23:26:36.090Z,568.73
2022-09-05T23:29:03.707Z,585.13
2022-09-05T23:31:31.451Z,508.27
2022-09-05T23:33:59.103Z,763.17
2022-09-05T23:36:28.387Z,747.83
2022-09-05T23:38:56.119Z,740.43
2022-09-05T23:41:23.740Z,675.00
2022-09-05T23:43:51.330Z,675.47
2022-09-05T23:46:18.993Z,761.23
2022-09-05T23:48:46.615Z,769.33
2022-09-05T23:51:14.600Z,770.90
2022-09-05T23:53:43.710Z,796.03
2022-09-05T23:56:12.166Z,777.73
2022-09-05T23:58:39.784Z,832.97
